Time;durP1;ratioP1;P1;durP2;ratioP2;P2;SDS_P1;SDS_P2;PMS_P1;PMS_P2;Temp;Humidity;BMP_temperature;BMP_pressure;BME280_temperature;BME280_humidity;BME280_pressure;Samples;Min_cycle;Max_cycle;Signal;HPM_P1;HPM_P2
2023/01/08 00:00:57;;;;;;;2.97;2.40;;;7.30;97.30;;;;;;4967102;28;20434;-85
2023/01/08 00:03:23;;;;;;;4.03;2.30;;;7.30;97.30;;;;;;4952481;28;20201;-85
2023/01/08 00:05:49;;;;;;;1.77;1.73;;;7.20;97.30;;;;;;4952252;29;20562;-85
2023/01/08 00:08:15;;;;;;;4.30;4.03;;;7.10;97.30;;;;;;4952199;29;20732;-85
2023/01/08 00:10:40;;;;;;;2.40;1.97;;;6.90;97.30;;;;;;4969825;28;20182;-85
2023/01/08 00:13:06;;;;;;;3.77;2.80;;;6.90;97.30;;;;;;4980410;28;20191;-85
2023/01/08 00:15:33;;;;;;;3.43;2.67;;;6.80;97.30;;;;;;4950657;29;20601;-86
2023/01/08 00:17:58;;;;;;;2.63;2.17;;;6.80;97.30;;;;;;4952428;28;20450;-86
2023/01/08 00:20:25;;;;;;;1.83;1.77;;;6.80;97.30;;;;;;4951065;29;20419;-86
2023/01/08 00:22:51;;;;;;;1.57;1.47;;;6.70;97.30;;;;;;4967261;28;20564;-85
2023/01/08 00:25:17;;;;;;;2.00;1.90;;;6.70;97.30;;;;;;4950891;29;20496;-85
2023/01/08 00:27:43;;;;;;;7.40;2.87;;;6.60;97.30;;;;;;4950943;29;20470;-85
2023/01/08 00:30:09;;;;;;;1.60;1.60;;;6.60;97.30;;;;;;4966714;28;20964;-85
2023/01/08 00:32:35;;;;;;;2.37;2.17;;;6.60;97.30;;;;;;4951018;29;20446;-85
2023/01/08 00:35:00;;;;;;;2.23;2.03;;;6.60;97.30;;;;;;4952358;29;20914;-85
2023/01/08 00:37:26;;;;;;;1.40;1.30;;;6.60;97.30;;;;;;4952532;28;20717;-85
2023/01/08 00:39:52;;;;;;;1.83;1.50;;;6.60;97.30;;;;;;4952864;28;20183;-85
2023/01/08 00:42:17;;;;;;;8.47;3.17;;;6.70;97.30;;;;;;4954666;29;20418;-85
2023/01/08 00:44:43;;;;;;;3.00;2.77;;;6.70;97.30;;;;;;4954104;29;20548;-86
2023/01/08 00:47:08;;;;;;;3.53;2.10;;;6.70;97.30;;;;;;4954469;29;20273;-85
2023/01/08 00:49:34;;;;;;;4.70;2.50;;;6.80;97.30;;;;;;4954252;29;20573;-85
2023/01/08 00:51:59;;;;;;;6.73;2.23;;;6.80;97.30;;;;;;4955500;28;20575;-86
2023/01/08 00:54:25;;;;;;;1.90;1.80;;;6.80;97.30;;;;;;4954397;29;20186;-85
2023/01/08 00:56:50;;;;;;;2.40;2.20;;;6.90;97.30;;;;;;4970096;28;20197;-86
2023/01/08 00:59:16;;;;;;;5.60;2.83;;;6.90;97.30;;;;;;4954459;29;20550;-85
2023/01/08 01:01:41;;;;;;;9.20;2.03;;;6.90;97.30;;;;;;4954141;29;20183;-85
2023/01/08 01:04:07;;;;;;;2.00;1.90;;;6.90;97.30;;;;;;4954271;29;20187;-85
2023/01/08 01:06:32;;;;;;;1.50;1.40;;;6.90;97.30;;;;;;4954245;29;20555;-85
2023/01/08 01:08:58;;;;;;;1.90;1.80;;;6.90;97.30;;;;;;4970160;28;20266;-86
2023/01/08 01:11:25;;;;;;;2.50;2.30;;;6.90;97.30;;;;;;4954022;29;20167;-85
2023/01/08 01:13:51;;;;;;;5.40;2.17;;;7.00;97.30;;;;;;4954477;29;20219;-85
2023/01/08 01:16:17;;;;;;;2.30;2.13;;;7.00;97.30;;;;;;4954083;29;20451;-86
2023/01/08 01:18:43;;;;;;;2.57;2.37;;;6.90;97.30;;;;;;4954113;29;20211;-85
2023/01/08 01:21:20;;;;;;;3.00;2.30;;;6.80;97.30;;;;;;4969963;28;20446;-85
2023/01/08 01:23:45;;;;;;;5.33;2.10;;;6.80;97.30;;;;;;4969985;28;20179;-85
2023/01/08 01:26:19;;;;;;;9.00;3.07;;;6.90;97.30;;;;;;4953406;29;20474;-85
2023/01/08 01:28:49;;;;;;;2.00;1.80;;;7.00;97.30;;;;;;4954866;28;20426;-85
2023/01/08 01:31:15;;;;;;;1.70;1.60;;;7.20;97.30;;;;;;4964478;28;20437;-86
2023/01/08 01:33:41;;;;;;;3.10;2.90;;;7.40;97.30;;;;;;4973969;28;20414;-85
2023/01/08 01:36:08;;;;;;;3.77;2.40;;;7.50;97.30;;;;;;4974220;28;20421;-85
2023/01/08 01:38:34;;;;;;;2.20;2.00;;;7.50;97.30;;;;;;4972604;28;20493;-85
2023/01/08 01:40:59;;;;;;;1.90;1.80;;;7.60;97.30;;;;;;4972637;28;20516;-85
2023/01/08 01:43:40;;;;;;;1.97;1.87;;;7.70;97.30;;;;;;4973835;28;20188;-85
2023/01/08 01:46:24;;;;;;;2.10;1.73;;;7.70;97.30;;;;;;4973405;28;20283;-86
2023/01/08 01:48:55;;;;;;;3.93;3.00;;;7.70;97.30;;;;;;4990089;28;20488;-85
2023/01/08 01:51:21;;;;;;;2.60;1.67;;;7.70;97.30;;;;;;4995355;28;20436;-86
2023/01/08 01:53:48;;;;;;;1.87;1.77;;;7.70;97.30;;;;;;5005640;28;20438;-85
2023/01/08 01:56:14;;;;;;;2.43;2.23;;;7.70;97.30;;;;;;4990173;28;20422;-85
2023/01/08 01:58:40;;;;;;;1.77;1.50;;;7.70;97.30;;;;;;4988693;28;20533;-85
2023/01/08 02:01:08;;;;;;;1.43;1.40;;;7.70;97.30;;;;;;4988693;28;20497;-85
2023/01/08 02:03:39;;;;;;;1.90;1.87;;;7.70;97.30;;;;;;4988595;28;20189;-85
2023/01/08 02:06:34;;;;;;;2.77;2.57;;;7.70;97.30;;;;;;4988833;28;20466;-86
2023/01/08 02:09:22;;;;;;;5.60;2.53;;;7.60;97.30;;;;;;4988499;28;20461;-85
2023/01/08 02:12:17;;;;;;;2.63;2.43;;;7.60;97.30;;;;;;4973076;28;20414;-85
2023/01/08 02:15:11;;;;;;;1.23;1.20;;;7.60;97.30;;;;;;4988923;28;20410;-86
2023/01/08 02:17:48;;;;;;;2.43;1.57;;;7.60;97.30;;;;;;4988006;28;20437;-86
2023/01/08 02:20:28;;;;;;;6.03;1.97;;;7.50;97.30;;;;;;4971923;28;20835;-86
2023/01/08 02:23:07;;;;;;;2.40;1.70;;;7.40;97.30;;;;;;4988572;28;20984;-86
2023/01/08 02:26:09;;;;;;;2.07;1.93;;;7.40;97.30;;;;;;4971808;28;20774;-84
2023/01/08 02:29:00;;;;;;;1.40;1.30;;;7.40;97.30;;;;;;4988167;28;20968;-85
2023/01/08 02:31:28;;;;;;;3.70;2.33;;;7.30;97.30;;;;;;4961040;28;20536;-86
2023/01/08 02:33:54;;;;;;;1.73;1.67;;;7.30;97.30;;;;;;4973510;28;21061;-86
2023/01/08 02:36:31;;;;;;;5.23;2.27;;;7.30;97.30;;;;;;4971561;28;20476;-85
2023/01/08 02:39:09;;;;;;;2.60;2.27;;;7.20;97.30;;;;;;4987820;28;20455;-85
2023/01/08 02:41:58;;;;;;;1.70;1.60;;;7.20;97.30;;;;;;4987603;28;20463;-85
2023/01/08 02:44:46;;;;;;;9.13;2.13;;;7.20;97.30;;;;;;4987995;28;20437;-85
2023/01/08 02:47:29;;;;;;;5.33;2.53;;;7.10;97.30;;;;;;4971189;28;20964;-85
2023/01/08 02:50:09;;;;;;;2.60;2.23;;;7.10;97.30;;;;;;4972633;28;20462;-86
2023/01/08 02:52:41;;;;;;;1.97;1.87;;;7.10;97.30;;;;;;4987762;28;20484;-86
2023/01/08 02:55:08;;;;;;;1.13;1.03;;;7.10;97.30;;;;;;4987572;28;20437;-86
2023/01/08 02:57:34;;;;;;;3.10;1.70;;;7.10;97.30;;;;;;4987296;28;20800;-85
2023/01/08 02:59:59;;;;;;;2.93;2.30;;;7.10;97.30;;;;;;4987219;28;20429;-85
2023/01/08 03:02:31;;;;;;;2.20;1.63;;;7.10;97.30;;;;;;4986958;28;20415;-86
2023/01/08 03:05:02;;;;;;;3.80;1.77;;;7.10;97.30;;;;;;4987390;28;20227;-86
2023/01/08 03:07:28;;;;;;;8.67;3.50;;;7.10;97.30;;;;;;4986713;28;20980;-85
2023/01/08 03:09:53;;;;;;;1.70;1.60;;;7.10;97.30;;;;;;4987276;28;20441;-85
2023/01/08 03:12:23;;;;;;;1.80;1.70;;;7.10;97.30;;;;;;4987170;28;20658;-85
2023/01/08 03:14:57;;;;;;;1.70;1.60;;;7.10;97.30;;;;;;4987630;28;20174;-86
2023/01/08 03:17:30;;;;;;;1.50;1.40;;;7.10;97.30;;;;;;4986899;28;20508;-86
2023/01/08 03:20:01;;;;;;;2.13;1.97;;;7.10;97.30;;;;;;4986909;28;20458;-85
2023/01/08 03:22:29;;;;;;;1.40;1.30;;;7.10;97.30;;;;;;4985714;28;20505;-86
2023/01/08 03:24:57;;;;;;;2.50;1.93;;;7.10;97.30;;;;;;4970662;28;20422;-86
2023/01/08 03:27:29;;;;;;;2.10;1.67;;;7.10;97.30;;;;;;4970683;28;20505;-86
2023/01/08 03:29:58;;;;;;;2.50;2.00;;;7.10;97.30;;;;;;4970441;28;20795;-86
2023/01/08 03:32:26;;;;;;;2.13;1.97;;;7.10;97.30;;;;;;4970001;28;20476;-86
2023/01/08 03:34:54;;;;;;;2.30;2.10;;;7.10;97.30;;;;;;4972334;28;20448;-85
2023/01/08 03:37:25;;;;;;;2.53;2.07;;;7.10;97.30;;;;;;4987167;28;20422;-85
2023/01/08 03:40:05;;;;;;;4.10;2.10;;;7.10;97.30;;;;;;4986884;28;20430;-86
2023/01/08 03:42:32;;;;;;;1.30;1.20;;;7.10;97.30;;;;;;4986967;28;20456;-86
2023/01/08 03:44:59;;;;;;;2.83;2.63;;;7.20;97.30;;;;;;4986766;28;20473;-85
2023/01/08 03:47:26;;;;;;;4.17;2.60;;;7.20;97.30;;;;;;4971575;28;20473;-86
2023/01/08 03:49:54;;;;;;;2.50;2.37;;;7.20;97.30;;;;;;4970477;28;20426;-86
2023/01/08 03:52:29;;;;;;;2.30;2.10;;;7.20;97.30;;;;;;4986636;28;20418;-86
2023/01/08 03:54:54;;;;;;;2.30;2.10;;;7.20;97.30;;;;;;4970610;28;20425;-86
2023/01/08 03:57:20;;;;;;;2.03;1.77;;;7.10;97.30;;;;;;4986317;28;20975;-85
2023/01/08 03:59:45;;;;;;;1.47;1.37;;;7.10;97.30;;;;;;4970355;28;20185;-85
2023/01/08 04:02:11;;;;;;;1.20;1.10;;;7.10;97.30;;;;;;4985186;28;20183;-86
2023/01/08 04:04:37;;;;;;;2.07;1.93;;;7.00;97.30;;;;;;4970449;28;20239;-86
2023/01/08 04:07:03;;;;;;;3.77;3.57;;;7.00;97.30;;;;;;4969221;28;20557;-86
2023/01/08 04:09:28;;;;;;;3.73;2.30;;;7.00;97.30;;;;;;5020237;22;20241;-84
2023/01/08 04:11:54;;;;;;;2.67;2.07;;;7.00;97.30;;;;;;4982992;28;20181;-85
2023/01/08 04:14:19;;;;;;;2.63;2.43;;;7.00;97.30;;;;;;4992614;28;20351;-84
2023/01/08 04:16:44;;;;;;;3.67;2.43;;;7.00;97.30;;;;;;4994458;28;20185;-84
2023/01/08 04:19:11;;;;;;;2.17;1.63;;;7.00;97.30;;;;;;4995268;28;20205;-85
2023/01/08 04:21:37;;;;;;;1.97;1.70;;;7.00;97.30;;;;;;4996085;28;20177;-84
2023/01/08 04:24:03;;;;;;;1.43;1.33;;;7.00;97.30;;;;;;4994559;28;20515;-85
2023/01/08 04:26:28;;;;;;;3.00;2.80;;;7.00;97.30;;;;;;4994190;28;20492;-84
2023/01/08 04:28:54;;;;;;;2.10;1.90;;;7.00;97.30;;;;;;4994133;28;20194;-84
2023/01/08 04:31:19;;;;;;;2.30;1.90;;;7.00;97.30;;;;;;4995472;28;20178;-86
2023/01/08 04:33:45;;;;;;;1.50;1.40;;;6.90;97.30;;;;;;4994127;28;20272;-86
2023/01/08 04:36:10;;;;;;;2.73;2.13;;;6.90;97.30;;;;;;4976047;28;20178;-84
2023/01/08 04:38:36;;;;;;;1.60;1.30;;;7.00;97.30;;;;;;4975535;28;20206;-85
2023/01/08 04:41:02;;;;;;;2.03;1.60;;;7.10;97.30;;;;;;4974216;28;20187;-86
2023/01/08 04:43:29;;;;;;;2.80;2.60;;;7.20;97.30;;;;;;4974529;28;20189;-85
2023/01/08 04:46:02;;;;;;;1.30;1.20;;;7.30;97.30;;;;;;4974944;28;21147;-84
2023/01/08 04:48:29;;;;;;;1.40;1.30;;;7.30;97.30;;;;;;4974460;28;20433;-84
2023/01/08 04:50:57;;;;;;;2.60;2.40;;;7.50;97.30;;;;;;4974325;28;20421;-84
2023/01/08 04:53:23;;;;;;;2.10;1.97;;;7.50;97.30;;;;;;4974081;28;20453;-84
2023/01/08 04:55:48;;;;;;;1.97;1.87;;;7.60;97.30;;;;;;4974325;28;20461;-86
2023/01/08 04:58:14;;;;;;;2.20;1.93;;;7.60;97.30;;;;;;4975476;28;20210;-85
2023/01/08 05:00:40;;;;;;;2.13;1.97;;;7.70;97.30;;;;;;4974328;28;20720;-86
2023/01/08 05:03:06;;;;;;;1.40;1.40;;;7.70;97.30;;;;;;4974830;28;20195;-84
2023/01/08 05:05:32;;;;;;;2.27;1.60;;;7.80;97.30;;;;;;4974243;28;20425;-85
2023/01/08 05:07:58;;;;;;;2.40;1.33;;;7.80;97.30;;;;;;4974027;28;20289;-85
2023/01/08 05:10:23;;;;;;;1.40;1.30;;;7.80;97.30;;;;;;4974491;28;21008;-85
2023/01/08 05:12:49;;;;;;;2.87;1.63;;;7.80;97.30;;;;;;4974188;28;20181;-84
2023/01/08 05:15:14;;;;;;;1.40;1.30;;;7.80;97.30;;;;;;4974213;28;20222;-85
2023/01/08 05:17:40;;;;;;;1.33;1.23;;;7.80;97.30;;;;;;4973785;28;20183;-84
2023/01/08 05:20:07;;;;;;;1.10;1.00;;;7.90;97.30;;;;;;4974853;28;20186;-84
2023/01/08 05:22:33;;;;;;;4.30;1.83;;;7.90;97.30;;;;;;4975500;28;20190;-85
2023/01/08 05:24:58;;;;;;;1.10;1.00;;;7.90;97.30;;;;;;4993508;28;20433;-87
2023/01/08 05:27:23;;;;;;;1.53;1.33;;;7.90;97.30;;;;;;5007430;28;20224;-89
2023/01/08 05:29:50;;;;;;;1.60;1.50;;;8.00;97.30;;;;;;5011443;28;20190;-91
2023/01/08 05:32:17;;;;;;;1.97;1.57;;;8.00;97.30;;;;;;5011295;28;20184;-88
2023/01/08 05:34:43;;;;;;;1.37;1.27;;;8.00;97.30;;;;;;5004947;28;20428;-88
2023/01/08 05:37:09;;;;;;;2.00;1.50;;;8.10;97.30;;;;;;4990989;28;20426;-90
2023/01/08 05:39:35;;;;;;;1.67;1.57;;;8.10;97.30;;;;;;4983907;28;20434;-87
2023/01/08 05:42:01;;;;;;;1.30;1.20;;;8.10;97.30;;;;;;4973365;28;20225;-86
2023/01/08 05:44:27;;;;;;;2.13;1.50;;;8.10;97.30;;;;;;4974470;28;20423;-86
2023/01/08 05:46:52;;;;;;;1.23;1.23;;;8.10;97.30;;;;;;4992167;28;20210;-89
2023/01/08 05:49:20;;;;;;;1.50;1.40;;;8.10;97.30;;;;;;4986132;28;20225;-87
2023/01/08 05:51:46;;;;;;;1.47;1.43;;;8.10;97.30;;;;;;4973447;28;20177;-85
2023/01/08 05:54:12;;;;;;;1.90;1.80;;;8.10;97.30;;;;;;4972931;28;21045;-85
2023/01/08 05:56:37;;;;;;;1.33;1.23;;;8.00;97.30;;;;;;4973104;28;20183;-85
2023/01/08 05:59:02;;;;;;;1.77;1.63;;;8.00;97.30;;;;;;4973111;28;20199;-85
2023/01/08 06:01:28;;;;;;;1.87;1.30;;;8.00;97.30;;;;;;4973049;28;20289;-85
2023/01/08 06:03:55;;;;;;;2.13;1.50;;;8.00;97.30;;;;;;4973021;28;20206;-84
2023/01/08 06:06:20;;;;;;;1.93;1.73;;;8.00;97.30;;;;;;4972908;28;20685;-85
2023/01/08 06:08:46;;;;;;;3.23;2.17;;;8.00;97.30;;;;;;4973541;28;20465;-85
2023/01/08 06:11:12;;;;;;;1.57;1.47;;;7.90;97.30;;;;;;4972399;28;20220;-87
2023/01/08 06:13:41;;;;;;;1.20;1.10;;;7.90;97.30;;;;;;4972787;28;20178;-86
2023/01/08 06:16:07;;;;;;;1.50;1.40;;;7.90;97.30;;;;;;4972571;28;20849;-85
2023/01/08 06:18:33;;;;;;;1.67;1.57;;;8.00;97.30;;;;;;4972582;28;20438;-85
2023/01/08 06:20:58;;;;;;;1.00;0.90;;;8.00;97.30;;;;;;4972937;28;20245;-89
2023/01/08 06:23:24;;;;;;;1.50;1.40;;;8.00;97.30;;;;;;4973193;28;20245;-88
2023/01/08 06:26:02;;;;;;;1.70;1.60;;;8.00;97.30;;;;;;4972294;28;20210;-86
2023/01/08 06:28:28;;;;;;;1.20;1.03;;;8.00;97.30;;;;;;4972062;28;20199;-86
2023/01/08 06:30:57;;;;;;;3.97;1.90;;;8.00;97.30;;;;;;4972036;28;20473;-86
2023/01/08 06:33:22;;;;;;;1.27;1.17;;;7.90;97.30;;;;;;4972286;28;20170;-85
2023/01/08 06:35:48;;;;;;;2.90;1.77;;;8.00;97.30;;;;;;4986966;28;20981;-86
2023/01/08 06:38:13;;;;;;;2.10;1.70;;;8.00;97.30;;;;;;4989807;28;20202;-87
2023/01/08 06:40:39;;;;;;;1.73;1.63;;;8.00;97.30;;;;;;4991394;28;20260;-89
2023/01/08 06:43:05;;;;;;;1.90;1.87;;;8.00;97.30;;;;;;4991286;28;20657;-87
2023/01/08 06:45:31;;;;;;;5.03;2.30;;;8.00;97.30;;;;;;4991237;28;20178;-86
2023/01/08 06:48:01;;;;;;;2.00;1.87;;;8.00;97.30;;;;;;4991550;28;20197;-86
2023/01/08 06:50:28;;;;;;;1.77;1.67;;;8.00;97.30;;;;;;4991185;28;20413;-86
2023/01/08 06:52:54;;;;;;;1.30;1.20;;;8.00;97.30;;;;;;4991523;28;20417;-86
2023/01/08 06:55:21;;;;;;;1.80;1.70;;;8.10;97.30;;;;;;4991315;28;20610;-86
2023/01/08 06:57:47;;;;;;;11.63;2.30;;;8.10;97.30;;;;;;4990763;28;20446;-87
2023/01/08 07:00:13;;;;;;;1.50;1.40;;;8.10;97.30;;;;;;4991053;28;20417;-85
2023/01/08 07:02:39;;;;;;;4.00;2.33;;;8.10;97.30;;;;;;4991139;28;20181;-86
2023/01/08 07:05:04;;;;;;;1.60;1.50;;;8.10;97.30;;;;;;4990673;28;20413;-86
2023/01/08 07:07:30;;;;;;;1.83;1.47;;;8.10;97.30;;;;;;4990232;28;20256;-86
2023/01/08 07:09:55;;;;;;;2.77;2.23;;;8.10;97.30;;;;;;4990236;28;20317;-85
2023/01/08 07:12:21;;;;;;;1.73;1.30;;;8.10;97.30;;;;;;4991112;28;20183;-86
2023/01/08 07:14:46;;;;;;;2.30;2.10;;;8.20;97.30;;;;;;4988923;28;20237;-86
2023/01/08 07:17:12;;;;;;;2.30;2.00;;;8.20;97.30;;;;;;4990623;28;20194;-86
2023/01/08 07:19:37;;;;;;;1.77;1.67;;;8.20;97.30;;;;;;4991730;28;20283;-86
2023/01/08 07:22:03;;;;;;;1.87;1.77;;;8.20;97.30;;;;;;4990353;28;20186;-84
2023/01/08 07:24:28;;;;;;;1.77;1.70;;;8.20;97.30;;;;;;4991047;28;20181;-85
2023/01/08 07:26:54;;;;;;;2.13;1.40;;;8.20;97.30;;;;;;4990206;28;20209;-88
2023/01/08 07:29:19;;;;;;;1.67;1.57;;;8.20;97.30;;;;;;4991868;28;20793;-87
2023/01/08 07:31:45;;;;;;;1.97;1.87;;;8.20;97.30;;;;;;4990457;28;20189;-86
2023/01/08 07:34:10;;;;;;;4.07;2.10;;;8.20;97.30;;;;;;4990789;28;20244;-86
2023/01/08 07:36:36;;;;;;;3.47;1.80;;;8.20;97.30;;;;;;4990570;28;20196;-89
2023/01/08 07:39:01;;;;;;;1.30;1.20;;;8.20;97.30;;;;;;4989227;28;20202;-86
2023/01/08 07:41:27;;;;;;;1.87;1.63;;;8.20;97.30;;;;;;4989710;28;20194;-89
2023/01/08 07:43:52;;;;;;;1.63;1.53;;;8.30;97.30;;;;;;4989550;28;20189;-89
2023/01/08 07:46:18;;;;;;;1.27;1.17;;;8.30;97.30;;;;;;4985100;28;20713;-86
2023/01/08 07:48:43;;;;;;;2.20;1.70;;;8.30;97.30;;;;;;4989383;28;20288;-90
2023/01/08 07:51:10;;;;;;;1.63;1.63;;;8.30;97.30;;;;;;4989480;28;20252;-86
2023/01/08 07:53:36;;;;;;;3.33;2.50;;;8.30;97.30;;;;;;4987892;28;20703;-89
2023/01/08 07:56:03;;;;;;;1.57;1.47;;;8.30;97.30;;;;;;4990321;28;20436;-87
2023/01/08 07:58:29;;;;;;;1.57;1.47;;;8.30;97.30;;;;;;4989942;28;20460;-84
2023/01/08 08:00:54;;;;;;;1.57;1.47;;;8.30;97.30;;;;;;4989046;28;20420;-88
2023/01/08 08:03:20;;;;;;;1.13;1.03;;;8.20;97.30;;;;;;4983509;28;20652;-87
2023/01/08 08:05:46;;;;;;;2.20;2.00;;;8.20;97.30;;;;;;4974278;28;20216;-84
2023/01/08 08:08:12;;;;;;;2.63;2.43;;;8.20;97.30;;;;;;4984602;28;20591;-86
2023/01/08 08:10:39;;;;;;;1.67;1.47;;;8.20;97.30;;;;;;4986953;28;20190;-88
2023/01/08 08:13:05;;;;;;;1.10;1.00;;;8.20;97.30;;;;;;4985275;28;20500;-84
2023/01/08 08:15:32;;;;;;;1.93;1.83;;;8.20;97.30;;;;;;4973928;28;20519;-88
2023/01/08 08:17:57;;;;;;;1.43;1.33;;;8.20;97.30;;;;;;4981501;28;20221;-87
2023/01/08 08:20:23;;;;;;;2.50;1.67;;;8.20;97.30;;;;;;4983702;28;21070;-88
2023/01/08 08:22:48;;;;;;;2.20;1.60;;;8.20;97.30;;;;;;4982966;28;20190;-88
2023/01/08 08:25:14;;;;;;;2.60;1.80;;;8.20;97.30;;;;;;4982729;28;20568;-88
2023/01/08 08:27:41;;;;;;;1.33;1.27;;;8.20;97.30;;;;;;4986532;28;20223;-86
2023/01/08 08:30:07;;;;;;;1.30;1.20;;;8.10;97.30;;;;;;4978750;28;20248;-89
2023/01/08 08:32:33;;;;;;;1.40;1.30;;;8.10;97.30;;;;;;4981618;28;20524;-85
2023/01/08 08:34:59;;;;;;;1.27;1.17;;;8.20;97.30;;;;;;4982563;28;20527;-88
2023/01/08 08:37:25;;;;;;;1.57;1.47;;;8.20;97.30;;;;;;4984761;28;20214;-88
2023/01/08 08:39:51;;;;;;;1.80;1.70;;;8.20;97.30;;;;;;4985480;28;20531;-83
2023/01/08 08:42:16;;;;;;;4.93;2.33;;;8.20;97.30;;;;;;4989936;28;20265;-86
2023/01/08 08:44:42;;;;;;;1.50;1.30;;;8.20;97.30;;;;;;4987257;28;20523;-87
2023/01/08 08:47:10;;;;;;;1.87;1.77;;;8.20;97.30;;;;;;4988870;28;20213;-89
2023/01/08 08:49:35;;;;;;;3.80;1.57;;;8.20;97.30;;;;;;4982323;28;20297;-90
2023/01/08 08:52:02;;;;;;;2.73;2.47;;;8.20;97.30;;;;;;4987166;28;20576;-86
2023/01/08 08:54:27;;;;;;;3.80;2.00;;;8.20;97.30;;;;;;4985724;28;20178;-87
2023/01/08 08:56:53;;;;;;;1.63;1.53;;;8.20;97.30;;;;;;4984297;28;20425;-86
2023/01/08 08:59:19;;;;;;;6.13;2.40;;;8.20;97.30;;;;;;4989762;28;20205;-87
2023/01/08 09:01:44;;;;;;;4.10;2.47;;;8.20;97.30;;;;;;4992067;28;20195;-87
2023/01/08 09:04:10;;;;;;;2.30;2.10;;;8.20;97.30;;;;;;4985879;28;20317;-88
2023/01/08 09:06:35;;;;;;;2.13;1.80;;;8.20;97.30;;;;;;4983501;28;20419;-85
2023/01/08 09:09:01;;;;;;;3.00;2.37;;;8.10;97.30;;;;;;4987474;28;20218;-86
2023/01/08 09:11:26;;;;;;;1.20;1.10;;;8.10;97.30;;;;;;4992196;28;20201;-89
2023/01/08 09:13:52;;;;;;;3.37;2.50;;;8.10;97.30;;;;;;4992400;28;20196;-88
2023/01/08 09:16:17;;;;;;;4.67;2.83;;;8.10;97.30;;;;;;4994413;28;20551;-90
2023/01/08 09:18:43;;;;;;;2.60;2.40;;;8.00;97.30;;;;;;4994265;28;20248;-86
2023/01/08 09:21:09;;;;;;;2.20;2.00;;;8.00;97.30;;;;;;4994426;28;20186;-88
2023/01/08 09:23:35;;;;;;;1.43;1.33;;;8.00;97.30;;;;;;4994070;28;20935;-89
2023/01/08 09:26:04;;;;;;;1.87;1.80;;;7.90;97.30;;;;;;4993841;28;20255;-88
2023/01/08 09:28:30;;;;;;;4.60;2.50;;;7.90;97.30;;;;;;4994381;28;20202;-88
2023/01/08 09:30:55;;;;;;;2.43;2.03;;;7.90;97.30;;;;;;4993794;28;20440;-88
2023/01/08 09:33:21;;;;;;;3.00;2.27;;;7.90;97.30;;;;;;4993970;28;20420;-89
2023/01/08 09:35:46;;;;;;;2.43;2.10;;;7.90;97.30;;;;;;4992932;28;20213;-90
2023/01/08 09:38:12;;;;;;;1.77;1.67;;;7.90;97.30;;;;;;4993249;28;20201;-87
2023/01/08 09:40:43;;;;;;;1.90;1.80;;;7.90;97.30;;;;;;4993827;28;20712;-89
2023/01/08 09:43:16;;;;;;;1.50;1.40;;;7.90;97.30;;;;;;4993486;28;20186;-87
2023/01/08 09:45:44;;;;;;;1.17;1.07;;;7.90;97.30;;;;;;4995435;28;20416;-86
2023/01/08 09:48:15;;;;;;;1.53;1.43;;;8.00;97.30;;;;;;4994016;28;20990;-89
2023/01/08 09:50:41;;;;;;;1.90;1.80;;;8.00;97.30;;;;;;4994534;28;21005;-86
2023/01/08 09:53:15;;;;;;;2.03;1.90;;;8.00;97.30;;;;;;4994257;28;20417;-88
2023/01/08 09:55:42;;;;;;;3.90;2.00;;;8.00;97.30;;;;;;4994138;28;20170;-87
2023/01/08 09:58:35;;;;;;;3.77;1.87;;;8.00;97.30;;;;;;4993607;28;20466;-90
2023/01/08 10:01:02;;;;;;;3.83;2.10;;;8.00;97.30;;;;;;4976932;28;20409;-86
2023/01/08 10:03:38;;;;;;;1.77;1.67;;;8.10;97.30;;;;;;4994883;28;21012;-91
2023/01/08 10:06:12;;;;;;;1.90;1.80;;;8.10;97.30;;;;;;4994078;28;20842;-88
2023/01/08 10:08:38;;;;;;;1.30;1.20;;;8.10;97.30;;;;;;5006166;22;20863;-85
2023/01/08 10:11:04;;;;;;;4.47;2.17;;;8.10;97.30;;;;;;4979023;28;20414;-85
2023/01/08 10:13:31;;;;;;;2.63;2.43;;;8.20;97.30;;;;;;4980444;28;20198;-86
2023/01/08 10:15:58;;;;;;;1.83;1.37;;;8.20;97.30;;;;;;4983486;28;20417;-85
2023/01/08 10:18:26;;;;;;;1.57;1.47;;;8.30;97.30;;;;;;4976070;28;20485;-86
2023/01/08 10:20:52;;;;;;;3.23;1.70;;;8.30;97.30;;;;;;4968199;28;20452;-85
2023/01/08 10:23:21;;;;;;;2.37;2.17;;;8.40;97.30;;;;;;4966582;28;20929;-85
2023/01/08 10:25:59;;;;;;;2.67;2.10;;;8.40;97.30;;;;;;4967097;28;20961;-85
2023/01/08 10:28:30;;;;;;;4.33;3.87;;;8.40;97.30;;;;;;4960567;28;20496;-85
2023/01/08 10:31:05;;;;;;;2.30;1.87;;;8.40;97.30;;;;;;4955372;28;20422;-86
2023/01/08 10:33:46;;;;;;;2.57;2.37;;;8.50;97.30;;;;;;4953675;28;20909;-85
2023/01/08 10:36:15;;;;;;;1.77;1.30;;;8.50;97.30;;;;;;4967118;28;20413;-86
2023/01/08 10:38:49;;;;;;;3.87;2.57;;;8.50;97.30;;;;;;4971187;28;20509;-87
2023/01/08 10:41:16;;;;;;;3.80;1.93;;;8.60;97.30;;;;;;4971309;28;20418;-86
2023/01/08 10:43:49;;;;;;;2.30;1.60;;;8.60;97.30;;;;;;4968905;28;20418;-86
2023/01/08 10:46:30;;;;;;;2.30;1.50;;;8.60;97.30;;;;;;4971047;28;20493;-86
2023/01/08 10:48:59;;;;;;;2.60;1.93;;;8.60;97.30;;;;;;4971064;28;20934;-86
2023/01/08 10:51:26;;;;;;;2.13;1.90;;;8.70;97.30;;;;;;4971371;28;20436;-86
2023/01/08 10:53:54;;;;;;;5.37;3.20;;;8.70;97.30;;;;;;4972377;28;20429;-84
2023/01/08 10:56:25;;;;;;;2.33;2.13;;;8.70;97.30;;;;;;4971669;28;20430;-86
2023/01/08 10:58:51;;;;;;;1.80;1.70;;;8.70;97.30;;;;;;4971837;28;20446;-86
2023/01/08 11:01:23;;;;;;;2.20;1.93;;;8.80;97.30;;;;;;4972175;28;20782;-86
2023/01/08 11:03:50;;;;;;;2.17;2.03;;;8.80;97.30;;;;;;4971883;28;20418;-86
2023/01/08 11:06:26;;;;;;;4.53;2.50;;;8.80;97.30;;;;;;4971694;28;20476;-86
2023/01/08 11:09:11;;;;;;;1.63;1.50;;;8.80;97.30;;;;;;4971070;28;20473;-86
2023/01/08 11:11:37;;;;;;;4.37;2.27;;;8.80;97.30;;;;;;4971032;28;20421;-86
2023/01/08 11:14:19;;;;;;;1.80;1.63;;;8.80;97.30;;;;;;4971545;28;20426;-86
2023/01/08 11:16:45;;;;;;;2.23;1.40;;;8.80;97.30;;;;;;4973720;28;20461;-86
2023/01/08 11:19:27;;;;;;;1.50;1.40;;;8.80;97.30;;;;;;4971226;28;20973;-87
2023/01/08 11:21:55;;;;;;;3.13;2.93;;;8.80;97.30;;;;;;4971153;28;20508;-87
2023/01/08 11:24:27;;;;;;;3.07;2.57;;;8.80;97.30;;;;;;4970970;28;20425;-87
2023/01/08 11:27:12;;;;;;;19.97;3.20;;;8.90;97.30;;;;;;4970973;28;20458;-87
2023/01/08 11:29:43;;;;;;;2.40;1.73;;;8.90;97.30;;;;;;4966698;28;20540;-86
2023/01/08 11:32:24;;;;;;;3.67;3.03;;;8.90;97.30;;;;;;4951715;29;20462;-86
2023/01/08 11:34:52;;;;;;;2.43;2.23;;;8.90;97.30;;;;;;4958454;28;20418;-87
2023/01/08 11:37:23;;;;;;;3.13;2.70;;;8.90;97.30;;;;;;4970794;28;20440;-87
2023/01/08 11:39:51;;;;;;;3.47;2.20;;;9.00;97.30;;;;;;4970857;28;20468;-87
2023/01/08 11:42:26;;;;;;;1.73;1.63;;;9.00;97.30;;;;;;4970932;28;20461;-86
2023/01/08 11:45:15;;;;;;;4.53;2.60;;;9.00;97.30;;;;;;4971310;28;20422;-87
2023/01/08 11:47:54;;;;;;;2.70;2.43;;;9.00;97.30;;;;;;4970149;28;20542;-87
2023/01/08 11:51:13;;;;;;;1.90;1.80;;;9.00;97.30;;;;;;4969569;28;20473;-86
2023/01/08 11:53:56;;;;;;;2.57;2.40;;;9.00;97.30;;;;;;4896922;29;20626;-87
2023/01/08 11:56:54;;;;;;;7.00;2.70;;;9.10;97.30;;;;;;4971021;28;20464;-87
2023/01/08 11:59:48;;;;;;;6.10;3.40;;;9.10;97.30;;;;;;4970741;28;20952;-86
2023/01/08 12:02:42;;;;;;;2.57;2.37;;;9.10;97.30;;;;;;4970842;28;20908;-86
2023/01/08 12:05:13;;;;;;;3.03;1.83;;;9.10;97.30;;;;;;4971122;28;20772;-87
2023/01/08 12:08:05;;;;;;;2.77;2.67;;;9.10;97.30;;;;;;4970624;28;20520;-87
2023/01/08 12:10:43;;;;;;;2.90;2.70;;;9.10;97.30;;;;;;4970638;28;20477;-86
2023/01/08 12:13:28;;;;;;;1.93;1.87;;;9.10;97.30;;;;;;4970549;28;20417;-86
2023/01/08 12:16:31;;;;;;;7.03;3.00;;;9.10;97.30;;;;;;4970735;28;20406;-87
2023/01/08 12:19:18;;;;;;;3.53;1.67;;;9.10;97.30;;;;;;4970492;28;20437;-86
2023/01/08 12:22:00;;;;;;;2.30;1.90;;;9.10;97.30;;;;;;4972491;28;20418;-86
2023/01/08 12:24:44;;;;;;;6.93;2.67;;;9.20;97.30;;;;;;4973576;28;20418;-87
2023/01/08 12:27:42;;;;;;;2.60;1.97;;;9.20;97.30;;;;;;4971468;28;20497;-86
2023/01/08 12:30:26;;;;;;;2.93;2.73;;;9.20;97.30;;;;;;4970808;28;20450;-87
2023/01/08 12:33:10;;;;;;;1.63;1.50;;;9.20;97.30;;;;;;4971270;28;20442;-86
2023/01/08 12:35:40;;;;;;;2.27;1.77;;;9.30;97.30;;;;;;4972388;28;20533;-86
2023/01/08 12:38:08;;;;;;;3.13;2.17;;;9.30;97.30;;;;;;4974528;28;20417;-87
2023/01/08 12:40:54;;;;;;;4.93;3.17;;;9.30;97.30;;;;;;4974859;28;20416;-87
2023/01/08 12:43:24;;;;;;;2.00;1.53;;;9.30;97.30;;;;;;4974929;28;20432;-86
2023/01/08 12:45:53;;;;;;;1.23;1.20;;;9.30;97.30;;;;;;4974873;28;20935;-86
2023/01/08 12:48:23;;;;;;;1.67;1.60;;;9.40;97.30;;;;;;4974231;28;20461;-86
2023/01/08 12:50:56;;;;;;;5.23;2.63;;;9.30;97.30;;;;;;4974621;28;20564;-86
2023/01/08 12:53:36;;;;;;;2.43;2.23;;;9.30;97.30;;;;;;4974137;28;20422;-86
2023/01/08 12:56:13;;;;;;;2.80;2.23;;;9.30;97.30;;;;;;4975269;28;20425;-86
2023/01/08 12:58:57;;;;;;;12.97;3.40;;;9.30;97.30;;;;;;4974258;28;20448;-87
2023/01/08 13:01:25;;;;;;;4.80;2.23;;;9.20;97.30;;;;;;4973494;28;20451;-86
2023/01/08 13:03:53;;;;;;;1.23;1.13;;;9.20;97.30;;;;;;4990797;28;20437;-87
2023/01/08 13:06:20;;;;;;;1.63;1.53;;;9.20;97.30;;;;;;4975240;28;21050;-87
2023/01/08 13:08:53;;;;;;;2.43;2.23;;;9.20;97.30;;;;;;4973853;28;20461;-87
2023/01/08 13:11:29;;;;;;;2.30;2.10;;;9.20;97.30;;;;;;4974084;28;20418;-87